Time;durP1;ratioP1;P1;durP2;ratioP2;P2;SDS_P1;SDS_P2;PMS_P1;PMS_P2;Temp;Humidity;BMP_temperature;BMP_pressure;BME280_temperature;BME280_humidity;BME280_pressure;Samples;Min_cycle;Max_cycle;Signal;HPM_P1;HPM_P2
2023/07/23 00:01:33;;;;;;;7.00;3.70;;;;;;;;;;5039037;28;20460;-78
2023/07/23 00:03:59;;;;;;;5.35;3.65;;;;;;;;;;5024430;28;20041;-78
2023/07/23 00:06:27;;;;;;;6.22;4.00;;;;;;;;;;5023277;28;20068;-77
2023/07/23 00:08:53;;;;;;;6.90;3.80;;;;;;;;;;5024070;28;20091;-78
2023/07/23 00:11:20;;;;;;;6.35;4.20;;;;;;;;;;5023254;28;20095;-78
2023/07/23 00:13:48;;;;;;;8.27;4.47;;;;;;;;;;5023431;28;20128;-77
2023/07/23 00:16:16;;;;;;;6.53;4.10;;;;;;;;;;5023337;28;20072;-79
2023/07/23 00:18:44;;;;;;;7.88;4.40;;;;;;;;;;5024299;28;20041;-76
2023/07/23 00:21:13;;;;;;;6.40;4.03;;;;;;;;;;5022890;28;20045;-74
2023/07/23 00:23:39;;;;;;;6.28;3.85;;;;;;;;;;5038340;28;20042;-80
2023/07/23 00:26:07;;;;;;;6.50;3.70;;;;;;;;;;5028016;28;20460;-77
2023/07/23 00:28:33;;;;;;;6.75;3.63;;;;;;;;;;5023362;28;20135;-79
2023/07/23 00:31:01;;;;;;;7.10;4.28;;;;;;;;;;5027407;28;20117;-76
2023/07/23 00:33:30;;;;;;;7.38;4.68;;;;;;;;;;5024410;28;20108;-79
2023/07/23 00:35:56;;;;;;;10.88;4.45;;;;;;;;;;5023656;28;20434;-78
2023/07/23 00:38:24;;;;;;;6.28;4.22;;;;;;;;;;5022008;28;20119;-79
2023/07/23 00:40:56;;;;;;;6.05;3.65;;;;;;;;;;5022026;28;20033;-77
2023/07/23 00:43:22;;;;;;;5.05;3.47;;;;;;;;;;5023373;28;20160;-79
2023/07/23 00:45:48;;;;;;;6.60;3.85;;;;;;;;;;5038317;28;20611;-77
2023/07/23 00:48:16;;;;;;;8.30;3.85;;;;;;;;;;5022430;28;20694;-78
2023/07/23 00:50:42;;;;;;;6.10;3.55;;;;;;;;;;5022290;28;20087;-77
2023/07/23 00:53:11;;;;;;;5.50;3.60;;;;;;;;;;5022166;28;20057;-77
2023/07/23 00:55:37;;;;;;;6.15;4.18;;;;;;;;;;5020161;28;20131;-79
2023/07/23 00:58:05;;;;;;;9.20;4.00;;;;;;;;;;5022732;28;20037;-74
2023/07/23 01:00:31;;;;;;;8.35;4.43;;;;;;;;;;5038836;28;20036;-81
2023/07/23 01:02:57;;;;;;;6.82;3.90;;;;;;;;;;5021255;28;20040;-79
2023/07/23 01:05:24;;;;;;;6.75;4.35;;;;;;;;;;5023094;28;20037;-76
2023/07/23 01:07:50;;;;;;;6.05;3.42;;;;;;;;;;5021339;28;20044;-79
2023/07/23 01:10:20;;;;;;;7.07;3.28;;;;;;;;;;5037482;28;20030;-79
2023/07/23 01:12:51;;;;;;;7.88;3.90;;;;;;;;;;5036955;28;20030;-77
2023/07/23 01:15:17;;;;;;;6.13;3.85;;;;;;;;;;5022449;28;20026;-79
2023/07/23 01:17:43;;;;;;;8.80;3.97;;;;;;;;;;5022364;28;20361;-77
2023/07/23 01:20:09;;;;;;;7.43;3.85;;;;;;;;;;5020374;28;20037;-77
2023/07/23 01:22:36;;;;;;;6.00;3.75;;;;;;;;;;5023477;28;20051;-78
2023/07/23 01:25:08;;;;;;;6.45;3.95;;;;;;;;;;5109094;27;21162;-78
2023/07/23 01:27:37;;;;;;;5.70;3.85;;;;;;;;;;5108004;28;20125;-76
2023/07/23 01:30:08;;;;;;;7.60;3.95;;;;;;;;;;5106626;28;20684;-78
2023/07/23 01:32:34;;;;;;;5.68;3.83;;;;;;;;;;5109005;28;20053;-79
2023/07/23 01:35:03;;;;;;;4.90;3.67;;;;;;;;;;5090826;28;20039;-77
2023/07/23 01:37:29;;;;;;;7.28;3.85;;;;;;;;;;5109262;28;20032;-79
2023/07/23 01:39:55;;;;;;;8.70;3.55;;;;;;;;;;5105107;28;20474;-76
2023/07/23 01:42:24;;;;;;;7.50;4.00;;;;;;;;;;5107873;28;20154;-76
2023/07/23 01:44:50;;;;;;;4.60;3.85;;;;;;;;;;5105099;28;20031;-78
2023/07/23 01:47:16;;;;;;;6.57;3.78;;;;;;;;;;5107355;28;20373;-79
2023/07/23 01:49:45;;;;;;;8.48;3.72;;;;;;;;;;5103946;28;20028;-78
2023/07/23 01:52:11;;;;;;;4.95;3.50;;;;;;;;;;5108259;28;20063;-77
2023/07/23 01:54:39;;;;;;;10.27;3.75;;;;;;;;;;5107570;28;20054;-79
2023/07/23 01:57:05;;;;;;;5.28;3.67;;;;;;;;;;5105894;28;20023;-77
2023/07/23 01:59:31;;;;;;;5.32;3.60;;;;;;;;;;5095419;28;20126;-79
2023/07/23 02:01:57;;;;;;;6.80;4.38;;;;;;;;;;5108376;28;20534;-79
2023/07/23 02:04:23;;;;;;;5.55;4.00;;;;;;;;;;5111411;28;20038;-78
2023/07/23 02:06:49;;;;;;;7.75;3.95;;;;;;;;;;5089544;28;20035;-78
2023/07/23 02:09:15;;;;;;;6.82;4.03;;;;;;;;;;5107064;28;20114;-76
2023/07/23 02:11:41;;;;;;;5.75;4.10;;;;;;;;;;5103414;28;20031;-76
2023/07/23 02:14:08;;;;;;;6.60;3.85;;;;;;;;;;5108352;28;20100;-76
2023/07/23 02:16:34;;;;;;;7.78;3.85;;;;;;;;;;5104744;28;20080;-80
2023/07/23 02:19:00;;;;;;;5.43;3.97;;;;;;;;;;5111388;28;20035;-78
2023/07/23 02:21:26;;;;;;;4.95;3.65;;;;;;;;;;5087130;28;20127;-79
2023/07/23 02:23:52;;;;;;;5.15;3.88;;;;;;;;;;5089964;28;20035;-79
2023/07/23 02:26:20;;;;;;;5.82;3.90;;;;;;;;;;5110246;28;20035;-78
2023/07/23 02:28:46;;;;;;;7.40;4.15;;;;;;;;;;5107974;28;20023;-80
2023/07/23 02:31:12;;;;;;;8.38;4.25;;;;;;;;;;5103037;28;20520;-78
2023/07/23 02:33:41;;;;;;;8.77;3.95;;;;;;;;;;5108422;28;20035;-77
2023/07/23 02:36:07;;;;;;;5.85;3.67;;;;;;;;;;5095449;28;20028;-75
2023/07/23 02:38:36;;;;;;;8.98;3.70;;;;;;;;;;5076746;28;20163;-78
2023/07/23 02:41:02;;;;;;;7.53;3.85;;;;;;;;;;5078914;28;20036;-76
2023/07/23 02:43:30;;;;;;;5.68;3.40;;;;;;;;;;5091602;28;20043;-76
2023/07/23 02:45:56;;;;;;;6.28;3.97;;;;;;;;;;5075191;28;20047;-74
2023/07/23 02:48:22;;;;;;;8.45;3.97;;;;;;;;;;5093532;28;20040;-76
2023/07/23 02:50:48;;;;;;;5.07;3.55;;;;;;;;;;5075018;28;20032;-77
2023/07/23 02:53:14;;;;;;;14.32;4.45;;;;;;;;;;5093601;28;20028;-75
2023/07/23 02:55:40;;;;;;;5.93;3.40;;;;;;;;;;5092903;28;20040;-78
2023/07/23 02:58:06;;;;;;;6.88;3.90;;;;;;;;;;5075614;28;20032;-76
2023/07/23 03:00:32;;;;;;;4.85;3.65;;;;;;;;;;5093144;28;20051;-75
2023/07/23 03:03:00;;;;;;;6.28;3.75;;;;;;;;;;5093052;28;20725;-77
2023/07/23 03:05:26;;;;;;;5.10;3.80;;;;;;;;;;5093883;28;20028;-74
2023/07/23 03:07:53;;;;;;;5.97;3.70;;;;;;;;;;5092722;28;20036;-76
2023/07/23 03:10:19;;;;;;;6.05;3.22;;;;;;;;;;5095073;28;20043;-77
2023/07/23 03:12:47;;;;;;;5.47;3.70;;;;;;;;;;5075355;28;20036;-74
2023/07/23 03:15:13;;;;;;;8.10;4.35;;;;;;;;;;5093868;28;20448;-77
2023/07/23 03:17:39;;;;;;;5.30;3.10;;;;;;;;;;5093508;28;20028;-75
2023/07/23 03:20:06;;;;;;;8.85;3.72;;;;;;;;;;5093655;28;20066;-75
2023/07/23 03:22:35;;;;;;;4.78;3.40;;;;;;;;;;5092883;28;20460;-76
2023/07/23 03:25:03;;;;;;;5.28;3.70;;;;;;;;;;5090963;28;20027;-77
2023/07/23 03:27:29;;;;;;;6.53;3.30;;;;;;;;;;5091616;28;20093;-74
2023/07/23 03:29:55;;;;;;;4.57;3.75;;;;;;;;;;5074932;28;20037;-77
2023/07/23 03:32:21;;;;;;;8.95;3.55;;;;;;;;;;5093250;28;20059;-76
2023/07/23 03:34:49;;;;;;;6.32;3.95;;;;;;;;;;5088887;28;20040;-77
2023/07/23 03:37:17;;;;;;;7.80;3.97;;;;;;;;;;5092003;28;20040;-74
2023/07/23 03:39:43;;;;;;;7.22;3.50;;;;;;;;;;5074819;28;20086;-73
2023/07/23 03:42:09;;;;;;;6.28;3.33;;;;;;;;;;5075502;28;20638;-76
2023/07/23 03:44:35;;;;;;;8.23;3.40;;;;;;;;;;5079276;28;20046;-77
2023/07/23 03:47:13;;;;;;;6.57;3.67;;;;;;;;;;5090533;28;20032;-76
2023/07/23 03:49:39;;;;;;;4.97;3.70;;;;;;;;;;5092563;28;20027;-76
2023/07/23 03:52:07;;;;;;;9.70;3.05;;;;;;;;;;5088589;28;20363;-75
2023/07/23 03:54:34;;;;;;;5.45;3.70;;;;;;;;;;5075435;28;20036;-78
2023/07/23 03:57:00;;;;;;;9.05;3.70;;;;;;;;;;5091391;28;20063;-76
2023/07/23 03:59:30;;;;;;;3.92;2.97;;;;;;;;;;5074107;28;20024;-77
2023/07/23 04:01:57;;;;;;;9.30;4.20;;;;;;;;;;5077053;28;20528;-77
2023/07/23 04:04:23;;;;;;;6.53;3.35;;;;;;;;;;5092243;28;20032;-76
2023/07/23 04:06:49;;;;;;;7.75;3.78;;;;;;;;;;5090657;28;20040;-74
2023/07/23 04:09:18;;;;;;;5.53;3.20;;;;;;;;;;5091996;28;20577;-77
2023/07/23 04:11:44;;;;;;;10.98;3.55;;;;;;;;;;5092743;28;20341;-75
2023/07/23 04:14:10;;;;;;;4.97;3.40;;;;;;;;;;5090639;28;20640;-77
2023/07/23 04:16:36;;;;;;;6.43;3.53;;;;;;;;;;5091684;28;20035;-76
2023/07/23 04:19:02;;;;;;;5.25;3.28;;;;;;;;;;5090519;28;20038;-76
2023/07/23 04:21:30;;;;;;;5.13;3.22;;;;;;;;;;5092289;28;20032;-75
2023/07/23 04:23:57;;;;;;;7.15;3.13;;;;;;;;;;5087598;28;20036;-76
2023/07/23 04:26:25;;;;;;;5.65;3.10;;;;;;;;;;5090434;28;20028;-76
2023/07/23 04:28:54;;;;;;;5.53;3.22;;;;;;;;;;5091345;28;20032;-75
2023/07/23 04:31:20;;;;;;;5.57;3.38;;;;;;;;;;5091322;28;20044;-76
2023/07/23 04:33:46;;;;;;;6.60;3.13;;;;;;;;;;5090152;28;20035;-77
2023/07/23 04:36:13;;;;;;;5.72;2.78;;;;;;;;;;5091868;28;20047;-76
2023/07/23 04:38:39;;;;;;;5.57;3.20;;;;;;;;;;5090980;28;20043;-75
2023/07/23 04:41:05;;;;;;;6.50;3.28;;;;;;;;;;5073727;28;20104;-77
2023/07/23 04:43:32;;;;;;;4.47;3.25;;;;;;;;;;5090993;28;20064;-76
2023/07/23 04:45:58;;;;;;;4.28;3.13;;;;;;;;;;5090029;28;20467;-75
2023/07/23 04:48:25;;;;;;;6.32;3.30;;;;;;;;;;5089920;28;20035;-75
2023/07/23 04:50:57;;;;;;;4.78;3.03;;;;;;;;;;5090085;28;20038;-74
2023/07/23 04:53:26;;;;;;;3.38;2.78;;;;;;;;;;5091347;28;20044;-76
2023/07/23 04:55:56;;;;;;;5.85;2.80;;;;;;;;;;5078729;28;20123;-75
2023/07/23 04:58:23;;;;;;;5.35;3.15;;;;;;;;;;5089427;28;20135;-76
2023/07/23 05:00:49;;;;;;;4.47;3.20;;;;;;;;;;5090712;28;20040;-77
2023/07/23 05:03:15;;;;;;;5.25;3.22;;;;;;;;;;5076591;28;20050;-77
2023/07/23 05:05:51;;;;;;;4.30;3.03;;;;;;;;;;5077378;28;20038;-76
2023/07/23 05:08:21;;;;;;;4.32;2.90;;;;;;;;;;5090669;28;20027;-78
2023/07/23 05:10:49;;;;;;;3.83;3.00;;;;;;;;;;5091219;28;20027;-76
2023/07/23 05:13:15;;;;;;;4.93;3.10;;;;;;;;;;5091032;28;20032;-76
2023/07/23 05:15:42;;;;;;;5.05;2.60;;;;;;;;;;5076584;28;20104;-76
2023/07/23 05:18:08;;;;;;;7.22;3.40;;;;;;;;;;5076213;28;20032;-75
2023/07/23 05:20:34;;;;;;;7.80;2.92;;;;;;;;;;5091064;28;20032;-75
2023/07/23 05:23:00;;;;;;;4.75;3.08;;;;;;;;;;5091224;28;20036;-78
2023/07/23 05:25:26;;;;;;;8.05;3.45;;;;;;;;;;5093475;28;20100;-75
2023/07/23 05:27:55;;;;;;;6.80;3.20;;;;;;;;;;5090068;28;20139;-77
2023/07/23 05:30:21;;;;;;;10.45;3.42;;;;;;;;;;5090977;28;20028;-74
2023/07/23 05:32:47;;;;;;;6.13;3.03;;;;;;;;;;5073780;28;20032;-75
2023/07/23 05:35:14;;;;;;;3.90;3.05;;;;;;;;;;5072634;28;20027;-77
2023/07/23 05:37:40;;;;;;;3.70;2.83;;;;;;;;;;5090135;28;20035;-78
2023/07/23 05:40:06;;;;;;;7.50;2.90;;;;;;;;;;5089374;28;20379;-77
2023/07/23 05:42:32;;;;;;;4.50;2.63;;;;;;;;;;5090808;28;20559;-74
2023/07/23 05:44:58;;;;;;;7.55;3.60;;;;;;;;;;5073444;28;20053;-78
2023/07/23 05:47:24;;;;;;;5.97;2.78;;;;;;;;;;5091842;28;20035;-74
2023/07/23 05:49:50;;;;;;;6.47;2.95;;;;;;;;;;5090735;28;20028;-79
2023/07/23 05:52:18;;;;;;;6.22;2.72;;;;;;;;;;5090828;28;20034;-77
2023/07/23 05:54:44;;;;;;;4.07;2.60;;;;;;;;;;5072748;28;20059;-78
2023/07/23 05:57:12;;;;;;;5.65;3.15;;;;;;;;;;5074368;28;20119;-75
2023/07/23 05:59:38;;;;;;;7.80;3.13;;;;;;;;;;5073511;28;20075;-77
2023/07/23 06:02:05;;;;;;;3.17;2.40;;;;;;;;;;5090174;28;20137;-77
2023/07/23 06:04:33;;;;;;;7.15;2.42;;;;;;;;;;5090891;28;20072;-73
2023/07/23 06:07:03;;;;;;;5.43;2.60;;;;;;;;;;5090572;28;20031;-77
2023/07/23 06:09:29;;;;;;;3.58;2.30;;;;;;;;;;5072336;28;20024;-77
2023/07/23 06:11:55;;;;;;;4.15;2.05;;;;;;;;;;5093823;28;20031;-75
2023/07/23 06:14:21;;;;;;;5.93;2.28;;;;;;;;;;5091171;28;20040;-78
2023/07/23 06:16:47;;;;;;;3.35;2.55;;;;;;;;;;5080392;28;20035;-77
2023/07/23 06:19:15;;;;;;;3.63;2.10;;;;;;;;;;5094147;28;20035;-75
2023/07/23 06:21:41;;;;;;;3.47;2.10;;;;;;;;;;5093931;28;20036;-77
2023/07/23 06:24:07;;;;;;;2.78;1.70;;;;;;;;;;5093670;28;20439;-76
2023/07/23 06:26:33;;;;;;;4.00;2.13;;;;;;;;;;5094370;28;20028;-77
2023/07/23 06:28:59;;;;;;;4.32;1.70;;;;;;;;;;5093810;28;20042;-74
2023/07/23 06:31:28;;;;;;;3.53;1.98;;;;;;;;;;5076000;28;20440;-75
2023/07/23 06:33:56;;;;;;;4.78;2.35;;;;;;;;;;5093384;28;20118;-77
2023/07/23 06:36:22;;;;;;;3.20;1.88;;;;;;;;;;5093306;28;20463;-77
2023/07/23 06:38:49;;;;;;;5.18;2.20;;;;;;;;;;5093685;28;20035;-78
2023/07/23 06:41:15;;;;;;;4.05;2.03;;;;;;;;;;5090696;28;20356;-77
2023/07/23 06:43:41;;;;;;;5.32;2.40;;;;;;;;;;5093862;28;20040;-78
2023/07/23 06:46:07;;;;;;;3.65;1.85;;;;;;;;;;5093301;28;20262;-76
2023/07/23 06:48:33;;;;;;;6.25;2.60;;;;;;;;;;5090618;28;20024;-74
2023/07/23 06:50:59;;;;;;;3.92;2.08;;;;;;;;;;5092647;28;20032;-77
2023/07/23 06:53:25;;;;;;;3.10;1.48;;;;;;;;;;5080098;28;20795;-78
2023/07/23 06:56:01;;;;;;;3.80;2.17;;;;;;;;;;5077400;28;20043;-75
2023/07/23 06:58:28;;;;;;;6.18;2.03;;;;;;;;;;5091642;28;20028;-77
2023/07/23 07:00:57;;;;;;;7.38;2.45;;;;;;;;;;5076329;28;20456;-76
2023/07/23 07:03:26;;;;;;;3.60;1.60;;;;;;;;;;5092270;28;20146;-75
2023/07/23 07:05:54;;;;;;;5.10;2.08;;;;;;;;;;5092392;28;20032;-77
2023/07/23 07:08:20;;;;;;;4.38;2.17;;;;;;;;;;5088890;28;20943;-76
2023/07/23 07:10:46;;;;;;;5.65;3.15;;;;;;;;;;5074564;28;20036;-78
2023/07/23 07:13:13;;;;;;;3.65;2.40;;;;;;;;;;5093432;28;20027;-75
2023/07/23 07:15:43;;;;;;;6.25;2.92;;;;;;;;;;5094237;28;20027;-75
2023/07/23 07:18:09;;;;;;;6.05;2.15;;;;;;;;;;5093836;28;20083;-77
2023/07/23 07:20:35;;;;;;;4.97;2.28;;;;;;;;;;5092188;28;20040;-75
2023/07/23 07:23:03;;;;;;;4.45;3.00;;;;;;;;;;5090269;28;20123;-76
2023/07/23 07:25:29;;;;;;;5.78;2.58;;;;;;;;;;5090126;28;20028;-77
2023/07/23 07:27:55;;;;;;;3.05;2.05;;;;;;;;;;5094183;28;20036;-76
2023/07/23 07:30:21;;;;;;;6.30;2.47;;;;;;;;;;5075216;28;20043;-77
2023/07/23 07:32:47;;;;;;;4.88;2.65;;;;;;;;;;5077114;28;20024;-80
2023/07/23 07:35:16;;;;;;;5.00;2.70;;;;;;;;;;5090101;28;20080;-75
2023/07/23 07:37:44;;;;;;;4.35;2.30;;;;;;;;;;5092392;28;20039;-78
2023/07/23 07:40:12;;;;;;;5.88;2.53;;;;;;;;;;5093341;28;20059;-78
2023/07/23 07:42:41;;;;;;;2.47;1.95;;;;;;;;;;5088129;28;20384;-80
2023/07/23 07:45:10;;;;;;;3.40;2.25;;;;;;;;;;5094303;28;20058;-80
2023/07/23 07:47:36;;;;;;;9.18;3.00;;;;;;;;;;5093326;28;20023;-80
2023/07/23 07:50:03;;;;;;;7.68;2.78;;;;;;;;;;5094059;28;20085;-79
2023/07/23 07:52:29;;;;;;;3.85;2.47;;;;;;;;;;5074626;28;20074;-79
2023/07/23 07:54:59;;;;;;;7.55;2.92;;;;;;;;;;5074743;28;20036;-81
2023/07/23 07:57:25;;;;;;;7.85;3.47;;;;;;;;;;5092202;28;20619;-78
2023/07/23 07:59:54;;;;;;;6.38;2.85;;;;;;;;;;5092269;28;20089;-76
2023/07/23 08:02:22;;;;;;;5.20;2.83;;;;;;;;;;5093207;28;20039;-82
2023/07/23 08:04:48;;;;;;;9.20;3.00;;;;;;;;;;5089713;28;20032;-77
2023/07/23 08:07:15;;;;;;;3.65;2.33;;;;;;;;;;5093203;28;20066;-78
2023/07/23 08:09:44;;;;;;;4.60;2.83;;;;;;;;;;5074856;28;20113;-79
2023/07/23 08:12:12;;;;;;;5.32;2.88;;;;;;;;;;5091495;28;20028;-78
2023/07/23 08:14:38;;;;;;;3.65;2.75;;;;;;;;;;5088998;28;20115;-79
2023/07/23 08:17:08;;;;;;;9.60;3.80;;;;;;;;;;5092296;28;20040;-78
2023/07/23 08:19:35;;;;;;;5.63;2.97;;;;;;;;;;5086540;28;20044;-76
2023/07/23 08:22:01;;;;;;;4.97;2.50;;;;;;;;;;5092351;28;20065;-75
2023/07/23 08:24:27;;;;;;;5.50;3.28;;;;;;;;;;5092481;28;20039;-77
2023/07/23 08:26:55;;;;;;;5.50;3.97;;;;;;;;;;5092385;28;20028;-81
2023/07/23 08:29:22;;;;;;;9.02;3.35;;;;;;;;;;5092482;28;20115;-82
2023/07/23 08:31:48;;;;;;;5.20;3.65;;;;;;;;;;5092898;28;20498;-80
2023/07/23 08:34:14;;;;;;;4.85;3.40;;;;;;;;;;5075358;28;20055;-81
2023/07/23 08:36:40;;;;;;;5.93;2.85;;;;;;;;;;5074818;28;20028;-79
2023/07/23 08:39:06;;;;;;;8.38;3.05;;;;;;;;;;5073964;28;20046;-83
2023/07/23 08:42:02;;;;;;;5.88;3.40;;;;;;;;;;5092415;28;20153;-82
2023/07/23 08:44:55;;;;;;;4.97;3.45;;;;;;;;;;5074330;28;20109;-81
2023/07/23 08:47:24;;;;;;;6.15;3.63;;;;;;;;;;5094982;28;20032;-84
2023/07/23 08:49:52;;;;;;;6.93;4.10;;;;;;;;;;5075298;28;20024;-81
2023/07/23 08:52:19;;;;;;;6.97;3.88;;;;;;;;;;5092788;28;21644;-77
2023/07/23 08:54:48;;;;;;;8.27;4.78;;;;;;;;;;5076086;28;20035;-84
2023/07/23 08:57:14;;;;;;;10.40;5.00;;;;;;;;;;5091406;28;20032;-81
2023/07/23 08:59:40;;;;;;;8.73;4.63;;;;;;;;;;5092755;28;20040;-82
2023/07/23 09:02:07;;;;;;;8.85;4.03;;;;;;;;;;5091361;28;20527;-83
2023/07/23 09:04:34;;;;;;;5.60;3.28;;;;;;;;;;5093219;28;20031;-80
2023/07/23 09:07:00;;;;;;;9.32;3.95;;;;;;;;;;5092020;28;20032;-79
2023/07/23 09:09:26;;;;;;;7.22;4.28;;;;;;;;;;5076624;28;20152;-76
2023/07/23 09:11:53;;;;;;;5.30;3.10;;;;;;;;;;5094139;28;20400;-83
2023/07/23 09:14:19;;;;;;;7.55;4.07;;;;;;;;;;5091535;28;20036;-85
2023/07/23 09:16:46;;;;;;;5.32;3.28;;;;;;;;;;5075666;28;20028;-80
2023/07/23 09:19:13;;;;;;;7.63;4.30;;;;;;;;;;5088882;28;20067;-80
2023/07/23 09:21:42;;;;;;;5.55;2.97;;;;;;;;;;5092732;28;20028;-80
2023/07/23 09:24:12;;;;;;;6.55;3.25;;;;;;;;;;5092324;28;20032;-80
2023/07/23 09:26:40;;;;;;;5.70;3.92;;;;;;;;;;5074206;28;20031;-80
2023/07/23 09:29:11;;;;;;;5.03;3.30;;;;;;;;;;5088542;28;20024;-79
2023/07/23 09:31:40;;;;;;;8.30;2.65;;;;;;;;;;5094989;28;20471;-80
2023/07/23 09:34:06;;;;;;;4.00;3.03;;;;;;;;;;5088959;28;20040;-78
2023/07/23 09:36:35;;;;;;;7.07;3.38;;;;;;;;;;5083411;28;20036;-82
2023/07/23 09:39:03;;;;;;;9.32;2.92;;;;;;;;;;5092674;28;20309;-79
2023/07/23 09:41:31;;;;;;;5.05;3.30;;;;;;;;;;5092249;28;20257;-80
2023/07/23 09:43:58;;;;;;;4.40;2.38;;;;;;;;;;5091385;28;20035;-81
2023/07/23 09:46:25;;;;;;;3.45;2.50;;;;;;;;;;5098059;28;20137;-83
2023/07/23 09:48:51;;;;;;;6.50;2.50;;;;;;;;;;5099439;28;21551;-81
2023/07/23 09:51:17;;;;;;;3.53;2.53;;;;;;;;;;5096613;28;20046;-81
2023/07/23 09:53:46;;;;;;;3.88;2.30;;;;;;;;;;5084182;28;20068;-80
2023/07/23 09:56:15;;;;;;;7.63;2.58;;;;;;;;;;5096009;28;20059;-83
2023/07/23 09:58:46;;;;;;;5.95;2.90;;;;;;;;;;5096773;28;20028;-78
2023/07/23 10:01:12;;;;;;;6.75;3.45;;;;;;;;;;5096113;28;20198;-78
2023/07/23 10:03:41;;;;;;;11.23;4.10;;;;;;;;;;5077935;28;20363;-82
2023/07/23 10:06:11;;;;;;;6.28;3.60;;;;;;;;;;5096510;28;20042;-78
2023/07/23 10:08:46;;;;;;;5.85;4.22;;;;;;;;;;5096598;28;20555;-80
2023/07/23 10:11:12;;;;;;;6.82;3.80;;;;;;;;;;5079576;28;20039;-81
2023/07/23 10:13:41;;;;;;;6.03;3.60;;;;;;;;;;5095065;28;20070;-80
2023/07/23 10:16:24;;;;;;;8.10;3.75;;;;;;;;;;5091676;28;20104;-79
2023/07/23 10:18:51;;;;;;;9.00;4.70;;;;;;;;;;5093967;28;20035;-78
2023/07/23 10:21:19;;;;;;;5.47;4.43;;;;;;;;;;5078777;28;20036;-78
2023/07/23 10:23:51;;;;;;;5.60;4.35;;;;;;;;;;5094968;28;20031;-81
2023/07/23 10:26:19;;;;;;;4.55;2.95;;;;;;;;;;5082833;28;20032;-81
2023/07/23 10:28:48;;;;;;;3.92;2.75;;;;;;;;;;5077754;28;20043;-81
2023/07/23 10:31:21;;;;;;;3.80;2.67;;;;;;;;;;5077013;28;20038;-82
2023/07/23 10:33:49;;;;;;;4.95;3.00;;;;;;;;;;5077671;28;20067;-82
2023/07/23 10:36:15;;;;;;;3.10;2.60;;;;;;;;;;5083014;28;20091;-77
2023/07/23 10:38:41;;;;;;;4.88;2.95;;;;;;;;;;5078070;28;20051;-84
2023/07/23 10:41:07;;;;;;;4.90;2.80;;;;;;;;;;5082290;28;20031;-84
2023/07/23 10:43:52;;;;;;;8.20;3.03;;;;;;;;;;5094117;28;20032;-79
2023/07/23 10:46:19;;;;;;;5.47;3.25;;;;;;;;;;5076074;28;20056;-78
2023/07/23 10:48:45;;;;;;;4.03;3.00;;;;;;;;;;5093444;28;20042;-83
2023/07/23 10:51:12;;;;;;;3.70;2.50;;;;;;;;;;5091622;28;20119;-83
2023/07/23 10:53:41;;;;;;;5.55;3.00;;;;;;;;;;5094432;28;20318;-81
2023/07/23 10:56:22;;;;;;;2.60;1.92;;;;;;;;;;5080520;28;20055;-81
2023/07/23 10:58:51;;;;;;;4.22;2.33;;;;;;;;;;5090566;28;20036;-79
2023/07/23 11:01:21;;;;;;;5.00;3.25;;;;;;;;;;5095256;28;20031;-83
2023/07/23 11:03:50;;;;;;;5.45;2.80;;;;;;;;;;5095206;28;20038;-83
2023/07/23 11:06:29;;;;;;;4.75;3.45;;;;;;;;;;5092481;28;20447;-82
2023/07/23 11:08:57;;;;;;;5.00;3.10;;;;;;;;;;5094193;28;20106;-79
2023/07/23 11:11:34;;;;;;;2.80;2.00;;;;;;;;;;5096088;28;20020;-82
2023/07/23 11:14:00;;;;;;;3.30;2.22;;;;;;;;;;5094071;28;20032;-83
2023/07/23 11:16:27;;;;;;;2.90;2.25;;;;;;;;;;5095186;28;20058;-79
2023/07/23 11:18:53;;;;;;;2.33;1.85;;;;;;;;;;5092185;28;20050;-81
2023/07/23 11:21:19;;;;;;;5.90;3.30;;;;;;;;;;5077048;28;21627;-83
2023/07/23 11:23:45;;;;;;;6.07;2.08;;;;;;;;;;5095434;28;20123;-83
2023/07/23 11:26:11;;;;;;;4.30;1.85;;;;;;;;;;5093751;28;20101;-80
2023/07/23 11:28:38;;;;;;;3.13;1.45;;;;;;;;;;5093935;28;21357;-84
2023/07/23 11:31:04;;;;;;;2.65;1.45;;;;;;;;;;5076541;28;20538;-83
2023/07/23 11:33:30;;;;;;;5.43;1.70;;;;;;;;;;5094267;28;20650;-79
2023/07/23 11:36:01;;;;;;;2.40;1.55;;;;;;;;;;5077287;28;20084;-80
2023/07/23 11:38:28;;;;;;;1.90;1.25;;;;;;;;;;5076589;28;20031;-85
2023/07/23 11:40:57;;;;;;;2.60;1.55;;;;;;;;;;5094889;28;20032;-80
2023/07/23 11:43:23;;;;;;;1.63;1.20;;;;;;;;;;5094970;28;20914;-80
2023/07/23 11:45:50;;;;;;;2.95;1.60;;;;;;;;;;5094181;28;20028;-84
2023/07/23 11:48:17;;;;;;;8.15;1.35;;;;;;;;;;5077966;28;20032;-84
2023/07/23 11:50:44;;;;;;;12.13;7.82;;;;;;;;;;5076657;28;20035;-84
2023/07/23 11:53:12;;;;;;;1.75;1.17;;;;;;;;;;5075944;28;20119;-81
2023/07/23 11:55:38;;;;;;;3.03;1.00;;;;;;;;;;5092069;28;21662;-85
2023/07/23 11:58:04;;;;;;;1.95;1.13;;;;;;;;;;5095643;28;20031;-79
2023/07/23 12:00:42;;;;;;;3.35;1.30;;;;;;;;;;5091200;28;20487;-78
2023/07/23 12:03:08;;;;;;;1.67;1.30;;;;;;;;;;5090814;28;20028;-80
2023/07/23 12:05:38;;;;;;;3.50;1.10;;;;;;;;;;5095377;28;20138;-79
2023/07/23 12:08:04;;;;;;;1.05;0.77;;;;;;;;;;5089907;28;20032;-79
2023/07/23 12:10:34;;;;;;;1.20;0.82;;;;;;;;;;5093822;28;20036;-79
2023/07/23 12:13:10;;;;;;;1.85;1.02;;;;;;;;;;5091987;28;20059;-79
2023/07/23 12:15:40;;;;;;;4.60;1.33;;;;;;;;;;5075370;28;20071;-82
2023/07/23 12:18:08;;;;;;;1.48;1.33;;;;;;;;;;5090763;28;20154;-82
2023/07/23 12:20:34;;;;;;;3.38;2.00;;;;;;;;;;5090747;28;20104;-78
2023/07/23 12:23:01;;;;;;;1.08;0.88;;;;;;;;;;5077516;28;20671;-82
2023/07/23 12:25:27;;;;;;;1.52;0.90;;;;;;;;;;5091484;28;20036;-82
2023/07/23 12:27:54;;;;;;;1.73;1.20;;;;;;;;;;5092208;28;20034;-82
2023/07/23 12:30:20;;;;;;;4.28;2.78;;;;;;;;;;5093465;28;20032;-77
2023/07/23 12:32:48;;;;;;;3.63;2.53;;;;;;;;;;5074851;28;20055;-81
2023/07/23 12:35:15;;;;;;;5.25;2.88;;;;;;;;;;5090130;28;20034;-79
2023/07/23 12:37:41;;;;;;;1.77;1.45;;;;;;;;;;5091327;28;20035;-76
2023/07/23 12:40:08;;;;;;;5.32;2.22;;;;;;;;;;5090635;28;20622;-80
2023/07/23 12:42:34;;;;;;;2.78;0.47;;;;;;;;;;5073716;28;20126;-80
2023/07/23 12:45:03;;;;;;;4.45;1.00;;;;;;;;;;5073256;28;20042;-81
2023/07/23 12:47:30;;;;;;;1.08;0.88;;;;;;;;;;5090700;28;20114;-80
2023/07/23 12:49:58;;;;;;;5.78;0.70;;;;;;;;;;5091249;28;20123;-78
2023/07/23 12:52:24;;;;;;;1.40;0.70;;;;;;;;;;5091421;28;20035;-79
2023/07/23 12:54:50;;;;;;;1.88;0.77;;;;;;;;;;5091230;28;20046;-79
2023/07/23 12:57:17;;;;;;;1.02;0.52;;;;;;;;;;5090649;28;21690;-80
2023/07/23 12:59:43;;;;;;;1.48;0.88;;;;;;;;;;5090416;28;20048;-81
2023/07/23 13:02:10;;;;;;;3.47;0.70;;;;;;;;;;5086133;28;20368;-79
2023/07/23 13:04:37;;;;;;;2.80;0.63;;;;;;;;;;5092738;28;20492;-84
2023/07/23 13:07:03;;;;;;;2.75;0.60;;;;;;;;;;5089474;28;20061;-80
2023/07/23 13:09:29;;;;;;;9.98;0.98;;;;;;;;;;5085827;28;20031;-79
2023/07/23 13:11:55;;;;;;;1.40;0.80;;;;;;;;;;5090728;28;20058;-80
2023/07/23 13:14:23;;;;;;;1.20;0.70;;;;;;;;;;5086873;28;20032;-80
2023/07/23 13:16:49;;;;;;;3.42;0.80;;;;;;;;;;5089190;28;20032;-81
2023/07/23 13:19:15;;;;;;;1.70;0.63;;;;;;;;;;5087264;28;20064;-80
2023/07/23 13:21:43;;;;;;;2.63;0.50;;;;;;;;;;5093132;28;20032;-79
2023/07/23 13:24:12;;;;;;;5.57;0.60;;;;;;;;;;5088153;28;20032;-80
2023/07/23 13:26:38;;;;;;;1.75;0.55;;;;;;;;;;5090273;28;20020;-79
2023/07/23 13:29:04;;;;;;;3.13;0.80;;;;;;;;;;5090122;28;20020;-78
2023/07/23 13:31:30;;;;;;;1.20;0.55;;;;;;;;;;5072831;28;20032;-81
2023/07/23 13:33:56;;;;;;;1.25;0.50;;;;;;;;;;5074397;28;20032;-80
2023/07/23 13:36:24;;;;;;;0.50;0.40;;;;;;;;;;5091121;28;20036;-80
2023/07/23 13:38:50;;;;;;;1.60;0.60;;;;;;;;;;5089631;28;20035;-81
2023/07/23 13:41:17;;;;;;;0.88;0.60;;;;;;;;;;5060454;28;20456;-80
2023/07/23 13:43:45;;;;;;;1.08;0.80;;;;;;;;;;5072877;28;20032;-80
2023/07/23 13:46:11;;;;;;;1.33;0.40;;;;;;;;;;5078781;28;20032;-78
2023/07/23 13:48:40;;;;;;;3.00;0.68;;;;;;;;;;5091657;28;20089;-79
2023/07/23 13:51:06;;;;;;;1.40;0.85;;;;;;;;;;5072489;28;20062;-80
2023/07/23 13:53:32;;;;;;;0.95;0.68;;;;;;;;;;5086232;28;20064;-80
2023/07/23 13:56:01;;;;;;;1.60;0.80;;;;;;;;;;5090107;28;20024;-78
2023/07/23 13:58:29;;;;;;;0.80;0.50;;;;;;;;;;5075116;28;20024;-82
2023/07/23 14:00:55;;;;;;;0.70;0.50;;;;;;;;;;5091507;28;20040;-81
2023/07/23 14:03:24;;;;;;;1.25;0.73;;;;;;;;;;5074351;28;20032;-79
2023/07/23 14:05:50;;;;;;;1.00;0.50;;;;;;;;;;5089738;28;20038;-78
2023/07/23 14:08:16;;;;;;;0.68;0.50;;;;;;;;;;5071626;28;20039;-82
2023/07/23 14:10:42;;;;;;;1.60;0.50;;;;;;;;;;5090536;28;20028;-78
2023/07/23 14:13:08;;;;;;;1.52;0.68;;;;;;;;;;5085795;28;20024;-82
2023/07/23 14:15:34;;;;;;;2.67;0.60;;;;;;;;;;5076077;28;20058;-80
2023/07/23 14:18:00;;;;;;;3.53;0.40;;;;;;;;;;5092338;28;20036;-79
2023/07/23 14:20:26;;;;;;;2.22;0.50;;;;;;;;;;5076787;28;20312;-79
2023/07/23 14:22:52;;;;;;;2.58;0.57;;;;;;;;;;5071954;28;20024;-80
2023/07/23 14:25:18;;;;;;;10.15;1.00;;;;;;;;;;5071580;28;20031;-79
2023/07/23 14:27:44;;;;;;;5.00;1.05;;;;;;;;;;5090174;28;20086;-81
2023/07/23 14:30:10;;;;;;;3.47;0.90;;;;;;;;;;5090144;28;20081;-81
2023/07/23 14:32:39;;;;;;;2.80;0.85;;;;;;;;;;5091136;28;20618;-79
2023/07/23 14:35:05;;;;;;;2.05;0.70;;;;;;;;;;5090400;28;20119;-80
2023/07/23 14:37:31;;;;;;;1.48;0.65;;;;;;;;;;5076794;28;20036;-78
2023/07/23 14:39:58;;;;;;;1.02;0.43;;;;;;;;;;5091112;28;20117;-80
2023/07/23 14:42:24;;;;;;;0.88;0.50;;;;;;;;;;5108004;22;20057;-82
2023/07/23 14:44:51;;;;;;;1.20;0.90;;;;;;;;;;5022201;28;20041;-85